North Somercotes, United Kingdom
Current Conditions -  °F | °C
As of 2:50 AM on Friday 31 Oct 2014 (Local Time) from EGXS Reporting Station
Broken Clouds Broken Clouds  
Wind Chill: 57°   Ceiling: 4000
Heat Index: 57°   Visibility: 1.7mi
Dew Point: 55°   Wind: 8mph
Humidity: 94%   Direction: 180°S
Pressure: 29.97"   Gusts: NA
Location:  53.45°N, 0.14°E
Report Text: EGXS 310250Z AUTO 18007KT 2800 // FEW025/// BKN040/// BKN130/// 14/13 Q1015
Loading
Personal Weather Stations






























Interactive Weather Map
Tropical Storm Tracking
New forecast layout! Learn more

10-Day Weather Forecast

Advertisements
Track Severe Weather on mobile